International Virtual Aviation Organisation

Russian Federation and Kazakhstan MCD

 

Карточка аэропорта UASP

Внимание!
Информация на этой странице в стадии наполнения.
Если вы не увидели какой-то информации, или заметили неточность - пожалуйста сообщите нам!
Спасибо!
Команда RU-STAFF
Название аэропортаПавлодар
Название аэропорта (англ.)Pavlodar
Превышение410 ft. (125 m.)
Координаты52°11.7', 77°4.4339999999997'
Высота перехода2700
Эшелон переходаFL40
Коды ответчика0640-0647, 7240-7247
Зона ОрВДАстана РПИ (UACC)
Данные METARUASP 191600Z 28002MPS CAVOK 20/14 Q1019 R03/0///70 NOSIG RMK QFE754/1005
Проноз погоды (TAF)NODATA
NOTAMshow/hide NOTAM
AWOS   TABLE

Информация о ВПП

ВПП Длина ВПП (м.) Покрытие Курс ВПП Частота ILS
032500Цементобетон34 
212500Цементобетон214110.7

Диспетчерские позиции




Спутниковое изображение